Aeroporto :
LOGIN :

Iscrizione | Disclaimer

   EN    FR    IT 

 










Sommario :    VFR   VFR Marginale   IFR   IFR Intensivo   IFR Molto Intensivo
Visibilità : 
Base nubi : 
>= 8 km
>= 3000ft
5 / 8 km
1000 / 3000 ft
1500m / 5 km
500 / 1000 ft
800 / 1500m
200 / 500 ft
< 800m
< 200 ft
Simboli :   Temporali  Nebbia  Neve Forte  Precipitazioni Forti  Vento > 20 kt
SIGMETs :   Varie  Temporali  Ghiacco  Turbolenza  Onda orograficha  Ceneri Vulcaniche







- Altitudine del aeroporto : 38 ft
- Codice IATA : BOH
- Carte del aeroporto


EGHH - Bournemouth

ULTIMO METAR :
  • 211850Z 23007KT CAVOK 16/12 Q1025

METARs OBSOLETI :
  • 211820Z 23007KT 9999 FEW041 17/12 Q1025
  • 211750Z 22008KT 9999 FEW041 17/12 Q1025
  • 211720Z 24008KT 210V310 9999 FEW041 18/11 Q1025
  • 211650Z 23007KT 210V310 9999 FEW041 19/10 Q1025
  • 211620Z 24008KT 200V310 9999 FEW041 19/09 Q1025

TAF TAF EGHH
Valido dal 21 a 18 ore il 22 a 03 ore UTC


211659Z 2118/2203 19010KT 9999 SCT035
PROB40 2201/2203 6000
ATIS : +44 1202 364 151
Met : +44 1202 364 158 (TAF)
Nessun NOTAM noto per questo aeroporto.



MetMap, La meteo Aeronautica in un colpo d'occhio ! - Copyright ORBIFLY Dicembre 2007 - Disclaimer

ORBIFLY MET'MAP TEAM :

Programmazione e sviluppo : Alexandra Zaïnal
Concezione e sviluppo : Baudouin d'Aumeries
Co-Programmazione e sviluppo : Marc-Olivier Méhu
Supporto tecnico e logistico : Manuel Goepfert
Aiuto per la traduzione : Arnaldo La Scala

Contatto : metmap@orbifly.com




FONTI E CREDITI :

   NOAA